sensor_id;sensor_type;location;lat;lon;timestamp;P1;durP1;ratioP1;P2;durP2;ratioP2
78169;SDS011;67412;49.892;14.490;2023-08-17T00:00:14;9.90;;;5.30;;
78169;SDS011;67412;49.892;14.490;2023-08-17T00:02:40;8.80;;;5.55;;
78169;SDS011;67412;49.892;14.490;2023-08-17T00:05:05;9.27;;;4.50;;
78169;SDS011;67412;49.892;14.490;2023-08-17T00:07:35;9.50;;;5.28;;
78169;SDS011;67412;49.892;14.490;2023-08-17T00:10:01;8.88;;;4.95;;
78169;SDS011;67412;49.892;14.490;2023-08-17T00:12:26;9.73;;;5.05;;
78169;SDS011;67412;49.892;14.490;2023-08-17T00:14:52;9.30;;;5.25;;
78169;SDS011;67412;49.892;14.490;2023-08-17T00:17:17;10.82;;;5.50;;
78169;SDS011;67412;49.892;14.490;2023-08-17T00:19:43;10.35;;;5.18;;
78169;SDS011;67412;49.892;14.490;2023-08-17T00:22:08;8.90;;;4.55;;
78169;SDS011;67412;49.892;14.490;2023-08-17T00:24:33;8.85;;;5.30;;
78169;SDS011;67412;49.892;14.490;2023-08-17T00:26:59;9.25;;;4.82;;
78169;SDS011;67412;49.892;14.490;2023-08-17T00:29:24;8.95;;;5.00;;
78169;SDS011;67412;49.892;14.490;2023-08-17T00:31:49;8.70;;;5.03;;
78169;SDS011;67412;49.892;14.490;2023-08-17T00:34:16;9.52;;;5.50;;
78169;SDS011;67412;49.892;14.490;2023-08-17T00:36:41;9.25;;;4.97;;
78169;SDS011;67412;49.892;14.490;2023-08-17T00:39:06;9.88;;;5.43;;
78169;SDS011;67412;49.892;14.490;2023-08-17T00:41:32;10.07;;;5.47;;
78169;SDS011;67412;49.892;14.490;2023-08-17T00:43:57;10.68;;;5.70;;
78169;SDS011;67412;49.892;14.490;2023-08-17T00:46:22;9.38;;;4.70;;
78169;SDS011;67412;49.892;14.490;2023-08-17T00:48:48;10.27;;;5.07;;
78169;SDS011;67412;49.892;14.490;2023-08-17T00:51:14;9.80;;;4.72;;
78169;SDS011;67412;49.892;14.490;2023-08-17T00:53:40;9.40;;;5.30;;
78169;SDS011;67412;49.892;14.490;2023-08-17T00:56:06;9.30;;;5.15;;
78169;SDS011;67412;49.892;14.490;2023-08-17T00:58:32;9.00;;;4.97;;
78169;SDS011;67412;49.892;14.490;2023-08-17T01:00:58;10.85;;;5.45;;
78169;SDS011;67412;49.892;14.490;2023-08-17T01:03:23;10.10;;;5.60;;
78169;SDS011;67412;49.892;14.490;2023-08-17T01:05:50;8.45;;;4.75;;
78169;SDS011;67412;49.892;14.490;2023-08-17T01:08:16;9.90;;;5.38;;
78169;SDS011;67412;49.892;14.490;2023-08-17T01:10:51;10.45;;;5.70;;
78169;SDS011;67412;49.892;14.490;2023-08-17T01:13:24;9.80;;;5.53;;
78169;SDS011;67412;49.892;14.490;2023-08-17T01:15:56;13.13;;;6.05;;
78169;SDS011;67412;49.892;14.490;2023-08-17T01:18:28;10.52;;;6.28;;
78169;SDS011;67412;49.892;14.490;2023-08-17T01:20:56;9.30;;;5.30;;
78169;SDS011;67412;49.892;14.490;2023-08-17T01:23:22;10.02;;;5.75;;
78169;SDS011;67412;49.892;14.490;2023-08-17T01:25:47;10.38;;;5.55;;
78169;SDS011;67412;49.892;14.490;2023-08-17T01:28:13;10.93;;;5.75;;
78169;SDS011;67412;49.892;14.490;2023-08-17T01:33:49;11.30;;;6.20;;
78169;SDS011;67412;49.892;14.490;2023-08-17T01:36:24;10.75;;;5.75;;
78169;SDS011;67412;49.892;14.490;2023-08-17T01:38:51;11.75;;;5.97;;
78169;SDS011;67412;49.892;14.490;2023-08-17T01:41:20;10.07;;;5.70;;
78169;SDS011;67412;49.892;14.490;2023-08-17T01:43:47;11.32;;;6.30;;
78169;SDS011;67412;49.892;14.490;2023-08-17T01:46:13;11.25;;;5.95;;
78169;SDS011;67412;49.892;14.490;2023-08-17T01:48:42;12.15;;;5.82;;
78169;SDS011;67412;49.892;14.490;2023-08-17T01:51:09;13.57;;;6.03;;
78169;SDS011;67412;49.892;14.490;2023-08-17T01:53:35;11.60;;;6.43;;
78169;SDS011;67412;49.892;14.490;2023-08-17T01:56:00;12.18;;;6.15;;
78169;SDS011;67412;49.892;14.490;2023-08-17T01:58:26;12.98;;;6.20;;
78169;SDS011;67412;49.892;14.490;2023-08-17T02:00:51;13.23;;;6.35;;
78169;SDS011;67412;49.892;14.490;2023-08-17T02:03:16;11.02;;;5.95;;
78169;SDS011;67412;49.892;14.490;2023-08-17T02:05:45;11.57;;;6.32;;
78169;SDS011;67412;49.892;14.490;2023-08-17T02:08:11;11.98;;;6.10;;
78169;SDS011;67412;49.892;14.490;2023-08-17T02:10:36;11.05;;;6.00;;
78169;SDS011;67412;49.892;14.490;2023-08-17T02:13:01;12.27;;;6.28;;
78169;SDS011;67412;49.892;14.490;2023-08-17T02:15:27;12.93;;;6.30;;
78169;SDS011;67412;49.892;14.490;2023-08-17T02:17:52;11.70;;;6.15;;
78169;SDS011;67412;49.892;14.490;2023-08-17T02:20:18;13.85;;;6.43;;
78169;SDS011;67412;49.892;14.490;2023-08-17T02:22:43;12.40;;;6.10;;
78169;SDS011;67412;49.892;14.490;2023-08-17T02:25:09;11.32;;;5.97;;
78169;SDS011;67412;49.892;14.490;2023-08-17T02:27:34;10.43;;;5.90;;
78169;SDS011;67412;49.892;14.490;2023-08-17T02:30:00;10.40;;;5.90;;
78169;SDS011;67412;49.892;14.490;2023-08-17T02:32:25;11.65;;;6.18;;
78169;SDS011;67412;49.892;14.490;2023-08-17T02:34:50;12.35;;;6.75;;
78169;SDS011;67412;49.892;14.490;2023-08-17T02:37:16;14.75;;;6.05;;
78169;SDS011;67412;49.892;14.490;2023-08-17T02:39:41;11.70;;;6.38;;
78169;SDS011;67412;49.892;14.490;2023-08-17T02:42:06;11.50;;;6.57;;
78169;SDS011;67412;49.892;14.490;2023-08-17T02:44:31;13.57;;;7.00;;
78169;SDS011;67412;49.892;14.490;2023-08-17T02:46:57;13.95;;;7.22;;
78169;SDS011;67412;49.892;14.490;2023-08-17T02:49:22;14.50;;;6.65;;
78169;SDS011;67412;49.892;14.490;2023-08-17T02:51:47;13.55;;;6.53;;
78169;SDS011;67412;49.892;14.490;2023-08-17T02:54:13;13.43;;;6.72;;
78169;SDS011;67412;49.892;14.490;2023-08-17T02:56:38;10.45;;;6.20;;
78169;SDS011;67412;49.892;14.490;2023-08-17T02:59:03;10.80;;;6.78;;
78169;SDS011;67412;49.892;14.490;2023-08-17T03:01:29;10.45;;;5.97;;
78169;SDS011;67412;49.892;14.490;2023-08-17T03:03:54;9.98;;;5.97;;
78169;SDS011;67412;49.892;14.490;2023-08-17T03:06:20;12.15;;;6.60;;
78169;SDS011;67412;49.892;14.490;2023-08-17T03:08:45;9.70;;;5.45;;
78169;SDS011;67412;49.892;14.490;2023-08-17T03:11:10;11.43;;;6.00;;
78169;SDS011;67412;49.892;14.490;2023-08-17T03:13:36;11.13;;;6.13;;
78169;SDS011;67412;49.892;14.490;2023-08-17T03:16:01;12.07;;;5.72;;
78169;SDS011;67412;49.892;14.490;2023-08-17T03:18:26;12.55;;;5.68;;
78169;SDS011;67412;49.892;14.490;2023-08-17T03:20:52;10.25;;;5.78;;
78169;SDS011;67412;49.892;14.490;2023-08-17T03:23:17;11.00;;;5.88;;
78169;SDS011;67412;49.892;14.490;2023-08-17T03:25:42;11.90;;;6.18;;
78169;SDS011;67412;49.892;14.490;2023-08-17T03:28:08;12.50;;;6.93;;
78169;SDS011;67412;49.892;14.490;2023-08-17T03:30:33;10.25;;;6.03;;
78169;SDS011;67412;49.892;14.490;2023-08-17T03:32:59;11.95;;;6.47;;
78169;SDS011;67412;49.892;14.490;2023-08-17T03:35:24;12.35;;;6.43;;
78169;SDS011;67412;49.892;14.490;2023-08-17T03:37:50;14.60;;;6.95;;
78169;SDS011;67412;49.892;14.490;2023-08-17T03:40:15;11.60;;;6.18;;
78169;SDS011;67412;49.892;14.490;2023-08-17T03:42:40;12.43;;;6.75;;
78169;SDS011;67412;49.892;14.490;2023-08-17T03:45:06;13.07;;;6.85;;
78169;SDS011;67412;49.892;14.490;2023-08-17T03:47:32;14.52;;;7.00;;
78169;SDS011;67412;49.892;14.490;2023-08-17T03:49:57;13.57;;;7.28;;
78169;SDS011;67412;49.892;14.490;2023-08-17T03:52:22;14.43;;;7.40;;
78169;SDS011;67412;49.892;14.490;2023-08-17T03:54:48;11.73;;;6.30;;
78169;SDS011;67412;49.892;14.490;2023-08-17T03:57:13;11.52;;;5.97;;
78169;SDS011;67412;49.892;14.490;2023-08-17T03:59:38;12.43;;;6.53;;
78169;SDS011;67412;49.892;14.490;2023-08-17T04:02:04;13.02;;;7.40;;
78169;SDS011;67412;49.892;14.490;2023-08-17T04:04:29;11.50;;;6.68;;
78169;SDS011;67412;49.892;14.490;2023-08-17T04:06:54;13.02;;;6.90;;
78169;SDS011;67412;49.892;14.490;2023-08-17T04:09:20;10.35;;;5.88;;
78169;SDS011;67412;49.892;14.490;2023-08-17T04:11:45;11.60;;;6.15;;
78169;SDS011;67412;49.892;14.490;2023-08-17T04:14:10;10.48;;;6.28;;
78169;SDS011;67412;49.892;14.490;2023-08-17T04:16:37;12.50;;;6.53;;
78169;SDS011;67412;49.892;14.490;2023-08-17T04:19:02;10.88;;;6.40;;
78169;SDS011;67412;49.892;14.490;2023-08-17T04:21:28;11.70;;;6.72;;
78169;SDS011;67412;49.892;14.490;2023-08-17T04:23:53;12.95;;;6.93;;
78169;SDS011;67412;49.892;14.490;2023-08-17T04:26:18;14.18;;;7.55;;
78169;SDS011;67412;49.892;14.490;2023-08-17T04:28:44;14.25;;;6.68;;
78169;SDS011;67412;49.892;14.490;2023-08-17T04:31:09;12.18;;;6.43;;
78169;SDS011;67412;49.892;14.490;2023-08-17T04:33:34;11.75;;;6.18;;
78169;SDS011;67412;49.892;14.490;2023-08-17T04:36:00;11.50;;;6.32;;
78169;SDS011;67412;49.892;14.490;2023-08-17T04:38:26;12.77;;;6.82;;
78169;SDS011;67412;49.892;14.490;2023-08-17T04:40:51;12.05;;;6.40;;
78169;SDS011;67412;49.892;14.490;2023-08-17T04:43:16;12.00;;;6.95;;
78169;SDS011;67412;49.892;14.490;2023-08-17T04:45:42;12.18;;;7.05;;
78169;SDS011;67412;49.892;14.490;2023-08-17T04:48:07;11.45;;;6.82;;
78169;SDS011;67412;49.892;14.490;2023-08-17T04:50:33;14.07;;;6.93;;
78169;SDS011;67412;49.892;14.490;2023-08-17T04:52:58;10.80;;;6.07;;
78169;SDS011;67412;49.892;14.490;2023-08-17T04:55:23;11.40;;;6.57;;
78169;SDS011;67412;49.892;14.490;2023-08-17T04:57:49;10.82;;;6.57;;
78169;SDS011;67412;49.892;14.490;2023-08-17T05:00:15;14.80;;;7.30;;
78169;SDS011;67412;49.892;14.490;2023-08-17T05:02:40;12.25;;;7.28;;
78169;SDS011;67412;49.892;14.490;2023-08-17T05:05:06;13.20;;;7.40;;
78169;SDS011;67412;49.892;14.490;2023-08-17T05:07:33;11.55;;;6.78;;
78169;SDS011;67412;49.892;14.490;2023-08-17T05:09:59;14.25;;;7.60;;
78169;SDS011;67412;49.892;14.490;2023-08-17T05:12:25;12.20;;;7.03;;
78169;SDS011;67412;49.892;14.490;2023-08-17T05:14:50;12.88;;;7.53;;
78169;SDS011;67412;49.892;14.490;2023-08-17T05:17:15;11.77;;;7.35;;
78169;SDS011;67412;49.892;14.490;2023-08-17T05:19:41;11.88;;;7.18;;
78169;SDS011;67412;49.892;14.490;2023-08-17T05:22:10;13.43;;;6.97;;
78169;SDS011;67412;49.892;14.490;2023-08-17T05:24:37;14.07;;;7.97;;
78169;SDS011;67412;49.892;14.490;2023-08-17T05:27:03;13.52;;;7.13;;
78169;SDS011;67412;49.892;14.490;2023-08-17T05:29:28;11.98;;;7.70;;
78169;SDS011;67412;49.892;14.490;2023-08-17T05:31:54;12.80;;;6.85;;
78169;SDS011;67412;49.892;14.490;2023-08-17T05:34:19;12.02;;;7.13;;
78169;SDS011;67412;49.892;14.490;2023-08-17T05:36:45;11.07;;;7.38;;
78169;SDS011;67412;49.892;14.490;2023-08-17T05:39:10;12.68;;;7.20;;
78169;SDS011;67412;49.892;14.490;2023-08-17T05:41:35;11.48;;;6.50;;
78169;SDS011;67412;49.892;14.490;2023-08-17T05:44:01;13.73;;;7.72;;
78169;SDS011;67412;49.892;14.490;2023-08-17T05:46:26;12.07;;;7.40;;
78169;SDS011;67412;49.892;14.490;2023-08-17T05:48:52;11.02;;;7.25;;
78169;SDS011;67412;49.892;14.490;2023-08-17T05:51:17;12.00;;;7.35;;
78169;SDS011;67412;49.892;14.490;2023-08-17T05:53:42;13.52;;;7.03;;
78169;SDS011;67412;49.892;14.490;2023-08-17T05:56:07;12.40;;;7.53;;
78169;SDS011;67412;49.892;14.490;2023-08-17T05:58:33;11.98;;;6.63;;
78169;SDS011;67412;49.892;14.490;2023-08-17T06:01:05;12.23;;;6.95;;
78169;SDS011;67412;49.892;14.490;2023-08-17T06:03:34;12.52;;;7.15;;
78169;SDS011;67412;49.892;14.490;2023-08-17T06:08:26;14.43;;;7.70;;
78169;SDS011;67412;49.892;14.490;2023-08-17T06:10:51;12.88;;;7.47;;
78169;SDS011;67412;49.892;14.490;2023-08-17T06:13:16;14.00;;;7.55;;
78169;SDS011;67412;49.892;14.490;2023-08-17T06:15:42;13.25;;;7.03;;
78169;SDS011;67412;49.892;14.490;2023-08-17T06:18:07;12.27;;;7.45;;
78169;SDS011;67412;49.892;14.490;2023-08-17T06:20:32;14.82;;;6.90;;
78169;SDS011;67412;49.892;14.490;2023-08-17T06:22:58;12.95;;;7.60;;
78169;SDS011;67412;49.892;14.490;2023-08-17T06:25:23;11.27;;;7.00;;
78169;SDS011;67412;49.892;14.490;2023-08-17T06:27:49;12.27;;;7.05;;
78169;SDS011;67412;49.892;14.490;2023-08-17T06:30:14;11.18;;;7.03;;
78169;SDS011;67412;49.892;14.490;2023-08-17T06:32:40;12.80;;;7.25;;
78169;SDS011;67412;49.892;14.490;2023-08-17T06:35:06;11.65;;;7.43;;
78169;SDS011;67412;49.892;14.490;2023-08-17T06:37:32;12.55;;;6.68;;
78169;SDS011;67412;49.892;14.490;2023-08-17T06:39:57;10.70;;;7.18;;
78169;SDS011;67412;49.892;14.490;2023-08-17T06:42:22;12.07;;;8.02;;
78169;SDS011;67412;49.892;14.490;2023-08-17T06:44:48;13.45;;;7.35;;
78169;SDS011;67412;49.892;14.490;2023-08-17T06:47:13;11.38;;;6.90;;
78169;SDS011;67412;49.892;14.490;2023-08-17T06:49:38;10.43;;;7.03;;
78169;SDS011;67412;49.892;14.490;2023-08-17T06:52:04;12.02;;;6.82;;
78169;SDS011;67412;49.892;14.490;2023-08-17T06:54:29;10.30;;;6.30;;
78169;SDS011;67412;49.892;14.490;2023-08-17T06:56:57;12.57;;;5.88;;
78169;SDS011;67412;49.892;14.490;2023-08-17T06:59:22;11.32;;;6.68;;
78169;SDS011;67412;49.892;14.490;2023-08-17T07:01:47;10.55;;;6.53;;
78169;SDS011;67412;49.892;14.490;2023-08-17T07:04:13;10.48;;;6.90;;
78169;SDS011;67412;49.892;14.490;2023-08-17T07:06:38;11.25;;;6.88;;
78169;SDS011;67412;49.892;14.490;2023-08-17T07:09:03;11.43;;;6.70;;
78169;SDS011;67412;49.892;14.490;2023-08-17T07:11:30;10.98;;;7.05;;
78169;SDS011;67412;49.892;14.490;2023-08-17T07:13:55;9.90;;;6.60;;
78169;SDS011;67412;49.892;14.490;2023-08-17T07:16:21;12.80;;;6.85;;
78169;SDS011;67412;49.892;14.490;2023-08-17T07:18:46;12.10;;;7.97;;
78169;SDS011;67412;49.892;14.490;2023-08-17T07:21:12;10.77;;;6.82;;
78169;SDS011;67412;49.892;14.490;2023-08-17T07:23:37;11.10;;;6.28;;
78169;SDS011;67412;49.892;14.490;2023-08-17T07:26:02;10.82;;;6.50;;
78169;SDS011;67412;49.892;14.490;2023-08-17T07:28:28;11.40;;;6.32;;
78169;SDS011;67412;49.892;14.490;2023-08-17T07:30:53;11.80;;;6.78;;
78169;SDS011;67412;49.892;14.490;2023-08-17T07:33:18;12.40;;;6.80;;
78169;SDS011;67412;49.892;14.490;2023-08-17T07:35:44;12.43;;;7.07;;
78169;SDS011;67412;49.892;14.490;2023-08-17T07:38:09;10.27;;;6.50;;
78169;SDS011;67412;49.892;14.490;2023-08-17T07:40:34;10.07;;;6.68;;
78169;SDS011;67412;49.892;14.490;2023-08-17T07:43:00;10.05;;;6.20;;
78169;SDS011;67412;49.892;14.490;2023-08-17T07:45:26;10.20;;;5.78;;
78169;SDS011;67412;49.892;14.490;2023-08-17T07:47:52;10.60;;;6.90;;
78169;SDS011;67412;49.892;14.490;2023-08-17T07:50:17;10.88;;;7.38;;
78169;SDS011;67412;49.892;14.490;2023-08-17T07:52:43;12.07;;;6.85;;
78169;SDS011;67412;49.892;14.490;2023-08-17T07:55:08;10.55;;;7.10;;
78169;SDS011;67412;49.892;14.490;2023-08-17T07:57:33;11.18;;;7.43;;
78169;SDS011;67412;49.892;14.490;2023-08-17T07:59:59;12.02;;;7.85;;
78169;SDS011;67412;49.892;14.490;2023-08-17T08:02:24;11.30;;;6.88;;
78169;SDS011;67412;49.892;14.490;2023-08-17T08:04:49;12.60;;;7.38;;
78169;SDS011;67412;49.892;14.490;2023-08-17T08:07:15;9.35;;;6.38;;
78169;SDS011;67412;49.892;14.490;2023-08-17T08:09:40;11.55;;;6.53;;
78169;SDS011;67412;49.892;14.490;2023-08-17T08:12:05;12.00;;;7.07;;
78169;SDS011;67412;49.892;14.490;2023-08-17T08:14:33;11.05;;;6.78;;
78169;SDS011;67412;49.892;14.490;2023-08-17T08:16:58;10.60;;;6.85;;
78169;SDS011;67412;49.892;14.490;2023-08-17T08:19:24;10.10;;;6.55;;
78169;SDS011;67412;49.892;14.490;2023-08-17T08:21:49;12.07;;;7.43;;
78169;SDS011;67412;49.892;14.490;2023-08-17T08:24:14;10.57;;;7.20;;
78169;SDS011;67412;49.892;14.490;2023-08-17T08:26:40;12.07;;;7.15;;
78169;SDS011;67412;49.892;14.490;2023-08-17T08:29:05;10.77;;;7.15;;
78169;SDS011;67412;49.892;14.490;2023-08-17T08:31:30;11.48;;;7.30;;
78169;SDS011;67412;49.892;14.490;2023-08-17T08:33:56;13.13;;;7.47;;
78169;SDS011;67412;49.892;14.490;2023-08-17T08:36:21;10.95;;;7.00;;
78169;SDS011;67412;49.892;14.490;2023-08-17T08:38:46;9.70;;;6.50;;
78169;SDS011;67412;49.892;14.490;2023-08-17T08:41:12;9.73;;;6.47;;
78169;SDS011;67412;49.892;14.490;2023-08-17T08:43:38;11.68;;;6.93;;
78169;SDS011;67412;49.892;14.490;2023-08-17T08:46:04;9.50;;;7.20;;
78169;SDS011;67412;49.892;14.490;2023-08-17T08:48:31;12.32;;;7.20;;
78169;SDS011;67412;49.892;14.490;2023-08-17T08:50:56;11.27;;;6.47;;
78169;SDS011;67412;49.892;14.490;2023-08-17T08:53:32;12.45;;;7.38;;
78169;SDS011;67412;49.892;14.490;2023-08-17T08:56:10;11.90;;;6.63;;
78169;SDS011;67412;49.892;14.490;2023-08-17T08:58:37;10.38;;;7.03;;
78169;SDS011;67412;49.892;14.490;2023-08-17T09:01:04;9.40;;;6.45;;
78169;SDS011;67412;49.892;14.490;2023-08-17T09:03:32;11.23;;;7.07;;
78169;SDS011;67412;49.892;14.490;2023-08-17T09:05:58;10.75;;;6.68;;
78169;SDS011;67412;49.892;14.490;2023-08-17T09:08:26;9.48;;;6.50;;
78169;SDS011;67412;49.892;14.490;2023-08-17T09:10:54;10.88;;;7.00;;
78169;SDS011;67412;49.892;14.490;2023-08-17T09:13:19;11.07;;;6.82;;
78169;SDS011;67412;49.892;14.490;2023-08-17T09:15:45;12.80;;;7.53;;
78169;SDS011;67412;49.892;14.490;2023-08-17T09:18:10;12.18;;;7.10;;
78169;SDS011;67412;49.892;14.490;2023-08-17T09:20:40;10.95;;;6.85;;
78169;SDS011;67412;49.892;14.490;2023-08-17T09:23:11;11.80;;;6.78;;
78169;SDS011;67412;49.892;14.490;2023-08-17T09:25:38;10.07;;;6.53;;
78169;SDS011;67412;49.892;14.490;2023-08-17T09:28:08;10.80;;;6.40;;
78169;SDS011;67412;49.892;14.490;2023-08-17T09:30:49;9.27;;;6.57;;
78169;SDS011;67412;49.892;14.490;2023-08-17T09:33:19;10.77;;;6.97;;
78169;SDS011;67412;49.892;14.490;2023-08-17T09:35:45;9.30;;;7.13;;
78169;SDS011;67412;49.892;14.490;2023-08-17T09:38:11;10.73;;;7.43;;
78169;SDS011;67412;49.892;14.490;2023-08-17T09:40:36;10.38;;;6.68;;
78169;SDS011;67412;49.892;14.490;2023-08-17T09:43:02;8.45;;;6.10;;
78169;SDS011;67412;49.892;14.490;2023-08-17T09:45:27;9.88;;;6.25;;
78169;SDS011;67412;49.892;14.490;2023-08-17T09:47:54;10.70;;;6.63;;
78169;SDS011;67412;49.892;14.490;2023-08-17T09:50:23;11.73;;;6.60;;
78169;SDS011;67412;49.892;14.490;2023-08-17T09:52:48;10.45;;;6.80;;
78169;SDS011;67412;49.892;14.490;2023-08-17T09:55:18;10.48;;;6.90;;
78169;SDS011;67412;49.892;14.490;2023-08-17T09:57:51;11.75;;;6.90;;
78169;SDS011;67412;49.892;14.490;2023-08-17T10:00:18;10.85;;;6.65;;
78169;SDS011;67412;49.892;14.490;2023-08-17T10:02:44;10.20;;;6.25;;
78169;SDS011;67412;49.892;14.490;2023-08-17T10:05:11;12.45;;;6.35;;
78169;SDS011;67412;49.892;14.490;2023-08-17T10:07:38;9.52;;;5.97;;
78169;SDS011;67412;49.892;14.490;2023-08-17T10:10:08;9.35;;;5.47;;
78169;SDS011;67412;49.892;14.490;2023-08-17T10:12:44;8.98;;;5.72;;
78169;SDS011;67412;49.892;14.490;2023-08-17T10:15:18;8.68;;;5.70;;
78169;SDS011;67412;49.892;14.490;2023-08-17T10:18:00;13.82;;;6.00;;
78169;SDS011;67412;49.892;14.490;2023-08-17T10:23:10;8.57;;;5.50;;
78169;SDS011;67412;49.892;14.490;2023-08-17T10:25:42;10.82;;;5.57;;
78169;SDS011;67412;49.892;14.490;2023-08-17T10:28:08;8.10;;;5.55;;
78169;SDS011;67412;49.892;14.490;2023-08-17T10:30:35;8.93;;;5.60;;
78169;SDS011;67412;49.892;14.490;2023-08-17T10:33:02;9.50;;;5.28;;
78169;SDS011;67412;49.892;14.490;2023-08-17T10:35:30;8.00;;;5.72;;
78169;SDS011;67412;49.892;14.490;2023-08-17T10:37:57;9.70;;;5.78;;
78169;SDS011;67412;49.892;14.490;2023-08-17T10:40:26;9.40;;;5.55;;
78169;SDS011;67412;49.892;14.490;2023-08-17T10:42:53;7.60;;;5.20;;
78169;SDS011;67412;49.892;14.490;2023-08-17T10:45:29;8.35;;;5.93;;
78169;SDS011;67412;49.892;14.490;2023-08-17T10:50:31;9.93;;;5.57;;
78169;SDS011;67412;49.892;14.490;2023-08-17T10:55:35;9.13;;;5.22;;
78169;SDS011;67412;49.892;14.490;2023-08-17T10:58:02;7.93;;;5.60;;
78169;SDS011;67412;49.892;14.490;2023-08-17T11:00:31;10.40;;;5.57;;
78169;SDS011;67412;49.892;14.490;2023-08-17T11:03:00;8.68;;;5.07;;
78169;SDS011;67412;49.892;14.490;2023-08-17T11:05:41;8.00;;;4.57;;
78169;SDS011;67412;49.892;14.490;2023-08-17T11:08:10;6.90;;;4.60;;
78169;SDS011;67412;49.892;14.490;2023-08-17T11:11:05;7.82;;;5.30;;
78169;SDS011;67412;49.892;14.490;2023-08-17T11:13:35;8.40;;;4.97;;
78169;SDS011;67412;49.892;14.490;2023-08-17T11:16:08;9.27;;;5.22;;
78169;SDS011;67412;49.892;14.490;2023-08-17T11:18:35;8.48;;;4.80;;
78169;SDS011;67412;49.892;14.490;2023-08-17T11:21:06;7.45;;;4.53;;
78169;SDS011;67412;49.892;14.490;2023-08-17T11:23:33;8.30;;;5.25;;
78169;SDS011;67412;49.892;14.490;2023-08-17T11:26:01;10.23;;;5.22;;
78169;SDS011;67412;49.892;14.490;2023-08-17T11:28:29;7.18;;;4.75;;
78169;SDS011;67412;49.892;14.490;2023-08-17T11:31:01;8.60;;;5.25;;
78169;SDS011;67412;49.892;14.490;2023-08-17T11:33:28;9.00;;;4.68;;
78169;SDS011;67412;49.892;14.490;2023-08-17T11:35:59;9.05;;;4.78;;
78169;SDS011;67412;49.892;14.490;2023-08-17T11:38:29;9.77;;;5.07;;
78169;SDS011;67412;49.892;14.490;2023-08-17T11:40:57;7.90;;;5.28;;
78169;SDS011;67412;49.892;14.490;2023-08-17T11:43:23;9.15;;;5.10;;
78169;SDS011;67412;49.892;14.490;2023-08-17T11:45:49;8.32;;;5.18;;
78169;SDS011;67412;49.892;14.490;2023-08-17T11:48:14;8.02;;;4.95;;
78169;SDS011;67412;49.892;14.490;2023-08-17T11:50:42;8.05;;;5.15;;
78169;SDS011;67412;49.892;14.490;2023-08-17T11:53:07;8.77;;;5.40;;
78169;SDS011;67412;49.892;14.490;2023-08-17T11:55:32;9.93;;;5.38;;
78169;SDS011;67412;49.892;14.490;2023-08-17T11:57:58;8.02;;;4.93;;
78169;SDS011;67412;49.892;14.490;2023-08-17T12:00:23;7.05;;;5.05;;
78169;SDS011;67412;49.892;14.490;2023-08-17T12:02:51;7.45;;;5.20;;
78169;SDS011;67412;49.892;14.490;2023-08-17T12:05:23;7.78;;;4.95;;
78169;SDS011;67412;49.892;14.490;2023-08-17T12:07:50;7.25;;;4.82;;
78169;SDS011;67412;49.892;14.490;2023-08-17T12:10:17;7.78;;;4.93;;
78169;SDS011;67412;49.892;14.490;2023-08-17T12:12:44;8.20;;;4.90;;
78169;SDS011;67412;49.892;14.490;2023-08-17T12:15:12;10.25;;;4.70;;
78169;SDS011;67412;49.892;14.490;2023-08-17T12:17:48;10.05;;;5.10;;
78169;SDS011;67412;49.892;14.490;2023-08-17T12:20:20;9.38;;;4.65;;
78169;SDS011;67412;49.892;14.490;2023-08-17T12:22:46;8.63;;;4.93;;
78169;SDS011;67412;49.892;14.490;2023-08-17T12:27:38;9.65;;;5.10;;
78169;SDS011;67412;49.892;14.490;2023-08-17T12:30:04;10.43;;;5.05;;
78169;SDS011;67412;49.892;14.490;2023-08-17T12:32:30;9.30;;;4.60;;
78169;SDS011;67412;49.892;14.490;2023-08-17T12:34:55;7.47;;;4.70;;
78169;SDS011;67412;49.892;14.490;2023-08-17T12:37:21;9.07;;;5.20;;
78169;SDS011;67412;49.892;14.490;2023-08-17T12:39:47;8.48;;;5.05;;
78169;SDS011;67412;49.892;14.490;2023-08-17T12:42:13;8.20;;;5.00;;
78169;SDS011;67412;49.892;14.490;2023-08-17T12:44:41;10.23;;;5.43;;
78169;SDS011;67412;49.892;14.490;2023-08-17T12:47:07;10.48;;;5.30;;
78169;SDS011;67412;49.892;14.490;2023-08-17T12:49:32;9.48;;;4.93;;
78169;SDS011;67412;49.892;14.490;2023-08-17T12:51:57;9.80;;;4.85;;
78169;SDS011;67412;49.892;14.490;2023-08-17T12:54:23;10.00;;;4.97;;
78169;SDS011;67412;49.892;14.490;2023-08-17T12:56:48;9.35;;;4.80;;
78169;SDS011;67412;49.892;14.490;2023-08-17T12:59:13;8.10;;;4.75;;
78169;SDS011;67412;49.892;14.490;2023-08-17T13:01:40;9.43;;;5.38;;
78169;SDS011;67412;49.892;14.490;2023-08-17T13:04:06;8.93;;;4.80;;
78169;SDS011;67412;49.892;14.490;2023-08-17T13:06:32;9.10;;;4.38;;
78169;SDS011;67412;49.892;14.490;2023-08-17T13:08:57;10.18;;;4.53;;
78169;SDS011;67412;49.892;14.490;2023-08-17T13:11:23;8.30;;;5.10;;
78169;SDS011;67412;49.892;14.490;2023-08-17T13:13:48;8.00;;;4.65;;
78169;SDS011;67412;49.892;14.490;2023-08-17T13:16:13;9.60;;;5.30;;
78169;SDS011;67412;49.892;14.490;2023-08-17T13:18:39;9.38;;;4.68;;
78169;SDS011;67412;49.892;14.490;2023-08-17T13:21:04;7.63;;;4.57;;
78169;SDS011;67412;49.892;14.490;2023-08-17T13:23:29;9.75;;;5.00;;
78169;SDS011;67412;49.892;14.490;2023-08-17T13:25:55;9.73;;;4.95;;
78169;SDS011;67412;49.892;14.490;2023-08-17T13:28:20;12.27;;;5.50;;
78169;SDS011;67412;49.892;14.490;2023-08-17T13:30:46;8.73;;;4.95;;
78169;SDS011;67412;49.892;14.490;2023-08-17T13:33:11;8.23;;;5.35;;
78169;SDS011;67412;49.892;14.490;2023-08-17T13:35:37;8.43;;;4.90;;
78169;SDS011;67412;49.892;14.490;2023-08-17T13:38:03;11.77;;;5.97;;
78169;SDS011;67412;49.892;14.490;2023-08-17T13:40:29;9.77;;;5.22;;
78169;SDS011;67412;49.892;14.490;2023-08-17T13:42:55;8.57;;;4.30;;
78169;SDS011;67412;49.892;14.490;2023-08-17T13:45:21;7.97;;;4.78;;
78169;SDS011;67412;49.892;14.490;2023-08-17T13:47:46;10.27;;;5.25;;
78169;SDS011;67412;49.892;14.490;2023-08-17T13:50:11;9.07;;;5.25;;
78169;SDS011;67412;49.892;14.490;2023-08-17T13:52:37;10.38;;;6.65;;
78169;SDS011;67412;49.892;14.490;2023-08-17T13:55:02;9.52;;;6.25;;
78169;SDS011;67412;49.892;14.490;2023-08-17T13:57:28;8.45;;;4.85;;
78169;SDS011;67412;49.892;14.490;2023-08-17T13:59:53;7.20;;;4.30;;
78169;SDS011;67412;49.892;14.490;2023-08-17T14:02:19;9.18;;;4.13;;
78169;SDS011;67412;49.892;14.490;2023-08-17T14:04:45;7.45;;;4.20;;
78169;SDS011;67412;49.892;14.490;2023-08-17T14:07:10;9.18;;;4.60;;
78169;SDS011;67412;49.892;14.490;2023-08-17T14:09:36;7.72;;;4.78;;
78169;SDS011;67412;49.892;14.490;2023-08-17T14:12:01;7.65;;;4.75;;
78169;SDS011;67412;49.892;14.490;2023-08-17T14:14:26;8.35;;;4.45;;
78169;SDS011;67412;49.892;14.490;2023-08-17T14:16:52;8.00;;;4.80;;
78169;SDS011;67412;49.892;14.490;2023-08-17T14:19:17;7.82;;;4.18;;
78169;SDS011;67412;49.892;14.490;2023-08-17T14:21:42;6.95;;;3.72;;
78169;SDS011;67412;49.892;14.490;2023-08-17T14:24:08;9.00;;;5.80;;
78169;SDS011;67412;49.892;14.490;2023-08-17T14:26:33;9.23;;;5.30;;
78169;SDS011;67412;49.892;14.490;2023-08-17T14:28:59;8.80;;;5.18;;
78169;SDS011;67412;49.892;14.490;2023-08-17T14:31:24;9.57;;;5.07;;
78169;SDS011;67412;49.892;14.490;2023-08-17T14:33:50;8.65;;;4.95;;
78169;SDS011;67412;49.892;14.490;2023-08-17T14:36:15;8.63;;;4.80;;